createdAt,value
2018-08-03T00:01:34.246Z,3.60
2018-08-03T00:04:02.749Z,3.13
2018-08-03T00:06:31.650Z,3.57
2018-08-03T00:09:00.264Z,3.80
2018-08-03T00:11:28.764Z,3.30
2018-08-03T00:13:57.295Z,3.90
2018-08-03T00:16:25.491Z,4.07
2018-08-03T00:18:54.218Z,4.17
2018-08-03T00:21:22.723Z,4.10
2018-08-03T00:23:51.340Z,4.43
2018-08-03T00:26:19.920Z,3.73
2018-08-03T00:28:48.380Z,3.50
2018-08-03T00:31:16.861Z,3.37
2018-08-03T00:33:45.344Z,4.43
2018-08-03T00:36:13.885Z,4.30
2018-08-03T00:38:42.382Z,4.33
2018-08-03T00:41:11.008Z,3.80
2018-08-03T00:43:39.590Z,3.67
2018-08-03T00:46:08.088Z,3.83
2018-08-03T00:48:37.459Z,3.90
2018-08-03T00:51:06.259Z,4.50
2018-08-03T00:53:34.721Z,3.80
2018-08-03T00:56:03.174Z,4.30
2018-08-03T00:58:31.657Z,3.50
2018-08-03T01:01:00.356Z,4.23
2018-08-03T01:03:28.865Z,4.30
2018-08-03T01:05:57.373Z,4.50
2018-08-03T01:08:26.614Z,5.43
2018-08-03T01:10:55.432Z,4.70
2018-08-03T01:13:23.896Z,5.13
2018-08-03T01:15:52.199Z,5.30
2018-08-03T01:18:20.841Z,5.00
2018-08-03T01:20:49.427Z,4.73
2018-08-03T01:23:17.874Z,4.23
2018-08-03T01:25:46.404Z,4.40
2018-08-03T01:28:15.102Z,4.27
2018-08-03T01:30:43.662Z,4.30
2018-08-03T01:33:12.256Z,4.50
2018-08-03T01:35:40.729Z,4.60
2018-08-03T01:38:09.293Z,4.60
2018-08-03T01:40:38.116Z,4.90
2018-08-03T01:43:06.690Z,4.90
2018-08-03T01:45:35.176Z,4.90
2018-08-03T01:48:03.771Z,5.00
2018-08-03T01:50:32.224Z,5.30
2018-08-03T01:53:00.736Z,4.77
2018-08-03T01:55:29.238Z,4.90
2018-08-03T01:57:57.693Z,4.53
2018-08-03T02:00:26.139Z,4.80
2018-08-03T02:02:54.289Z,5.00
2018-08-03T02:05:22.986Z,4.80
2018-08-03T02:07:51.471Z,4.63
2018-08-03T02:10:19.981Z,5.13
2018-08-03T02:12:48.869Z,4.97
2018-08-03T02:15:17.318Z,5.30
2018-08-03T02:17:45.868Z,5.90
2018-08-03T02:20:14.360Z,5.60
2018-08-03T02:22:42.861Z,5.20
2018-08-03T02:25:11.344Z,5.53
2018-08-03T02:27:39.949Z,5.43
2018-08-03T02:30:08.462Z,5.17
2018-08-03T02:32:37.308Z,4.90
2018-08-03T02:35:05.778Z,5.03
2018-08-03T02:37:34.238Z,5.20
2018-08-03T02:40:03.050Z,6.20
2018-08-03T02:42:31.493Z,6.07
2018-08-03T02:44:59.925Z,5.70
2018-08-03T02:47:28.381Z,6.53
2018-08-03T02:49:56.855Z,5.33
2018-08-03T02:52:25.672Z,5.83
2018-08-03T02:54:54.220Z,5.67
2018-08-03T02:57:22.928Z,6.17
2018-08-03T02:59:51.466Z,5.77
2018-08-03T03:02:20.184Z,5.60
2018-08-03T03:04:48.773Z,5.70
2018-08-03T03:07:17.452Z,5.27
2018-08-03T03:09:46.003Z,5.90
2018-08-03T03:12:14.485Z,5.43
2018-08-03T03:14:42.986Z,5.90
2018-08-03T03:17:11.576Z,5.93
2018-08-03T03:19:40.679Z,6.03
2018-08-03T03:22:09.236Z,6.03
2018-08-03T03:24:37.556Z,6.20
2018-08-03T03:27:06.420Z,6.03
2018-08-03T03:29:35.066Z,5.97
2018-08-03T03:32:07.896Z,5.80
2018-08-03T03:34:36.460Z,5.70
2018-08-03T03:37:05.148Z,6.00
2018-08-03T03:39:33.820Z,6.40
2018-08-03T03:42:02.330Z,6.10
2018-08-03T03:44:30.528Z,6.17
2018-08-03T03:46:58.760Z,6.03
2018-08-03T03:49:26.960Z,6.13
2018-08-03T03:51:55.181Z,6.37
2018-08-03T03:54:23.325Z,6.37
2018-08-03T03:56:51.476Z,6.67
2018-08-03T03:59:19.745Z,6.90
2018-08-03T04:01:47.903Z,7.37
2018-08-03T04:04:16.045Z,6.27
2018-08-03T04:06:44.204Z,7.03
2018-08-03T04:09:13.377Z,6.93
2018-08-03T04:11:41.972Z,7.23
2018-08-03T04:14:10.401Z,6.67
2018-08-03T04:16:38.661Z,7.10
2018-08-03T04:19:07.177Z,7.40
2018-08-03T04:21:35.399Z,7.13
2018-08-03T04:24:03.557Z,6.07
2018-08-03T04:26:33.083Z,6.47
2018-08-03T04:29:01.323Z,5.97
2018-08-03T04:31:29.590Z,6.47
2018-08-03T04:33:58.009Z,6.20
2018-08-03T04:36:26.239Z,6.37
2018-08-03T04:38:54.458Z,5.87
2018-08-03T04:41:22.556Z,5.83
2018-08-03T04:43:50.708Z,6.00
2018-08-03T04:46:18.889Z,6.67
2018-08-03T04:48:47.126Z,6.33
2018-08-03T04:51:15.219Z,5.83
2018-08-03T04:53:43.351Z,6.43
2018-08-03T04:56:11.501Z,6.27
2018-08-03T04:58:39.690Z,5.83
2018-08-03T05:01:08.887Z,5.30
2018-08-03T05:03:37.123Z,5.73
2018-08-03T05:06:05.793Z,5.93
2018-08-03T05:08:33.971Z,5.80
2018-08-03T05:11:02.147Z,6.03
2018-08-03T05:13:30.255Z,6.00
2018-08-03T05:15:58.421Z,6.63
2018-08-03T05:18:26.564Z,7.30
2018-08-03T05:20:54.941Z,6.70
2018-08-03T05:23:23.119Z,6.53
2018-08-03T05:25:51.338Z,6.90
2018-08-03T05:28:19.520Z,6.03
2018-08-03T05:30:47.867Z,6.43
2018-08-03T05:33:16.039Z,7.03
2018-08-03T05:35:44.176Z,6.60
2018-08-03T05:38:12.961Z,7.13
2018-08-03T05:40:41.222Z,5.83
2018-08-03T05:43:09.429Z,6.13
2018-08-03T05:45:38.077Z,6.33
2018-08-03T05:48:06.729Z,6.17
2018-08-03T05:50:35.246Z,6.10
2018-08-03T05:53:03.777Z,6.20
2018-08-03T05:55:32.322Z,5.60
2018-08-03T05:58:00.918Z,5.63
2018-08-03T06:00:29.522Z,8.30
2018-08-03T06:02:58.163Z,5.57
2018-08-03T06:05:26.756Z,6.30
2018-08-03T06:07:55.241Z,7.27
2018-08-03T06:10:23.789Z,9.17
2018-08-03T06:12:52.315Z,9.80
2018-08-03T06:15:20.885Z,10.00
2018-08-03T06:17:49.327Z,10.33
2018-08-03T06:20:17.812Z,9.23
2018-08-03T06:22:46.943Z,9.10
2018-08-03T06:25:15.817Z,8.80
2018-08-03T06:27:44.354Z,8.77
2018-08-03T06:30:13.105Z,7.50
2018-08-03T06:32:41.554Z,7.50
2018-08-03T06:35:09.775Z,6.90
2018-08-03T06:37:38.267Z,6.77
2018-08-03T06:40:06.818Z,6.67
2018-08-03T06:42:35.382Z,6.53
2018-08-03T06:45:03.868Z,6.40
2018-08-03T06:47:32.373Z,6.53
2018-08-03T06:50:00.861Z,5.87
2018-08-03T06:52:29.210Z,6.10
2018-08-03T06:54:57.409Z,6.27
2018-08-03T06:57:26.225Z,6.33
2018-08-03T06:59:54.528Z,5.90
2018-08-03T07:02:22.920Z,5.47
2018-08-03T07:04:51.574Z,5.50
2018-08-03T07:07:19.749Z,5.63
2018-08-03T07:09:47.978Z,5.50
2018-08-03T07:12:16.152Z,5.40
2018-08-03T07:14:44.401Z,5.10
2018-08-03T07:17:12.662Z,4.97
2018-08-03T07:19:40.879Z,4.83
2018-08-03T07:22:09.432Z,5.00
2018-08-03T07:24:38.112Z,4.67
2018-08-03T07:27:06.758Z,5.00
2018-08-03T07:29:35.341Z,4.93
2018-08-03T07:32:03.522Z,4.50
2018-08-03T07:34:32.101Z,4.67
2018-08-03T07:37:00.401Z,4.50
2018-08-03T07:39:28.829Z,3.63
2018-08-03T07:41:57.564Z,4.10
2018-08-03T07:44:25.990Z,3.90
2018-08-03T07:46:55.698Z,4.90
2018-08-03T07:49:24.837Z,3.60
2018-08-03T07:52:01.255Z,3.30
2018-08-03T07:54:30.210Z,2.97
2018-08-03T07:56:58.850Z,3.43
2018-08-03T07:59:27.404Z,3.33
2018-08-03T08:01:56.232Z,3.43
2018-08-03T08:04:24.810Z,3.07
2018-08-03T08:06:53.312Z,3.17
2018-08-03T08:09:21.508Z,3.30
2018-08-03T08:11:50.492Z,3.60
2018-08-03T08:14:20.847Z,3.20
2018-08-03T08:16:50.462Z,3.43
2018-08-03T08:19:18.905Z,3.20
2018-08-03T08:21:47.423Z,2.97
2018-08-03T08:24:15.908Z,3.17
2018-08-03T08:26:44.395Z,3.13
2018-08-03T08:29:12.929Z,3.20
2018-08-03T08:31:41.545Z,3.40
2018-08-03T08:34:10.054Z,3.50
2018-08-03T08:36:38.591Z,3.07
2018-08-03T08:39:09.806Z,3.90
2018-08-03T08:41:38.309Z,2.90
2018-08-03T08:44:06.952Z,3.30
2018-08-03T08:46:35.584Z,3.60
2018-08-03T08:49:04.540Z,3.90
2018-08-03T08:51:33.206Z,3.33
2018-08-03T08:54:01.858Z,3.33
2018-08-03T08:56:30.353Z,3.00
2018-08-03T08:58:58.886Z,3.03
2018-08-03T09:01:27.408Z,2.73
2018-08-03T09:03:55.589Z,2.80
2018-08-03T09:06:26.123Z,2.40
2018-08-03T09:08:55.602Z,2.17
2018-08-03T09:11:24.250Z,2.97
2018-08-03T09:13:53.701Z,2.30
2018-08-03T09:16:22.406Z,2.10
2018-08-03T09:18:51.032Z,2.70
2018-08-03T09:21:19.959Z,2.37
2018-08-03T09:23:48.396Z,1.90
2018-08-03T09:26:16.888Z,2.00
2018-08-03T09:28:45.342Z,2.07
2018-08-03T09:31:13.928Z,2.40
2018-08-03T09:33:42.556Z,2.17
2018-08-03T09:36:11.151Z,2.60
2018-08-03T09:38:39.697Z,1.90
2018-08-03T09:41:08.528Z,2.20
2018-08-03T09:43:37.114Z,2.00
2018-08-03T09:46:05.615Z,2.20
2018-08-03T09:48:34.159Z,2.37
2018-08-03T09:51:02.689Z,2.40
2018-08-03T09:53:31.131Z,2.63
2018-08-03T09:55:59.675Z,2.10
2018-08-03T09:58:28.114Z,2.17
2018-08-03T10:00:57.736Z,2.70
2018-08-03T10:03:26.240Z,2.70
2018-08-03T10:05:55.238Z,2.33
2018-08-03T10:08:23.728Z,2.70
2018-08-03T10:10:52.236Z,2.60
2018-08-03T10:13:20.741Z,2.47
2018-08-03T10:15:49.233Z,2.00
2018-08-03T10:18:17.686Z,2.60
2018-08-03T10:20:46.167Z,2.73
2018-08-03T10:23:14.890Z,2.63
2018-08-03T10:25:43.443Z,2.67
2018-08-03T10:28:11.944Z,2.70
2018-08-03T10:30:40.439Z,2.27
2018-08-03T10:33:09.134Z,2.67
2018-08-03T10:35:37.711Z,2.27
2018-08-03T10:38:06.222Z,2.13
2018-08-03T10:40:34.664Z,2.43
2018-08-03T10:43:03.244Z,3.00
2018-08-03T10:45:31.724Z,2.10
2018-08-03T10:48:00.184Z,2.63
2018-08-03T10:50:29.207Z,2.10
2018-08-03T10:52:57.784Z,3.03
2018-08-03T10:55:26.420Z,2.70
2018-08-03T10:57:54.854Z,2.67
2018-08-03T11:00:29.460Z,3.27
2018-08-03T11:02:58.327Z,2.73
2018-08-03T11:05:27.169Z,2.70
2018-08-03T11:07:55.637Z,2.50
2018-08-03T11:10:24.300Z,2.63
2018-08-03T11:12:53.103Z,2.60
2018-08-03T11:15:21.681Z,2.80
2018-08-03T11:17:50.887Z,2.57
2018-08-03T11:20:19.440Z,2.00
2018-08-03T11:22:47.945Z,2.57
2018-08-03T11:25:16.493Z,2.33
2018-08-03T11:27:44.932Z,2.40
2018-08-03T11:30:13.359Z,2.10
2018-08-03T11:32:41.847Z,2.23
2018-08-03T11:35:10.682Z,2.27
2018-08-03T11:37:39.152Z,2.27
2018-08-03T11:40:08.344Z,2.50
2018-08-03T11:42:36.915Z,2.60
2018-08-03T11:45:07.161Z,2.27
2018-08-03T11:47:35.777Z,2.40
2018-08-03T11:50:05.200Z,2.43
2018-08-03T11:52:33.651Z,2.53
2018-08-03T11:55:02.164Z,2.23
2018-08-03T11:57:30.655Z,2.47
2018-08-03T11:59:59.965Z,2.73
2018-08-03T12:02:28.511Z,2.27
2018-08-03T12:04:56.959Z,2.27
2018-08-03T12:07:25.472Z,2.33
2018-08-03T12:09:54.060Z,2.40
2018-08-03T12:12:22.521Z,2.13
2018-08-03T12:14:51.021Z,2.70
2018-08-03T12:17:19.511Z,2.60
2018-08-03T12:19:48.017Z,2.37
2018-08-03T12:22:17.181Z,2.27
2018-08-03T12:24:45.800Z,2.13
2018-08-03T12:27:14.359Z,2.73
2018-08-03T12:29:42.869Z,2.30
2018-08-03T12:32:11.407Z,2.60
2018-08-03T12:34:39.880Z,2.30
2018-08-03T12:37:08.463Z,2.27
2018-08-03T12:39:37.306Z,1.87
2018-08-03T12:42:05.987Z,2.33
2018-08-03T12:44:34.529Z,2.20
2018-08-03T12:47:02.995Z,2.43
2018-08-03T12:49:31.560Z,2.27
2018-08-03T12:52:00.055Z,2.63
2018-08-03T12:54:29.137Z,2.50
2018-08-03T12:56:57.933Z,2.27
2018-08-03T12:59:26.577Z,2.20
2018-08-03T13:01:55.171Z,2.30
2018-08-03T13:04:23.620Z,2.80
2018-08-03T13:06:52.174Z,2.30
2018-08-03T13:09:20.795Z,2.00
2018-08-03T13:11:49.380Z,2.50
2018-08-03T13:14:17.957Z,2.13
2018-08-03T13:16:46.410Z,1.97
2018-08-03T13:19:15.265Z,2.33
2018-08-03T13:21:44.023Z,2.13
2018-08-03T13:24:12.704Z,2.13
2018-08-03T13:26:42.034Z,2.13
2018-08-03T13:29:10.595Z,2.10
2018-08-03T13:31:39.596Z,2.20
2018-08-03T13:34:08.112Z,2.50
2018-08-03T13:36:36.548Z,2.10
2018-08-03T13:39:07.872Z,2.10
2018-08-03T13:41:36.574Z,1.80
2018-08-03T13:44:05.226Z,2.37
2018-08-03T13:46:33.692Z,1.90
2018-08-03T13:49:02.170Z,1.80
2018-08-03T13:51:30.710Z,2.20
2018-08-03T13:53:58.997Z,2.10
2018-08-03T13:56:27.668Z,2.03
2018-08-03T13:58:55.990Z,1.93
2018-08-03T14:01:37.775Z,1.83
2018-08-03T14:04:06.447Z,2.00
2018-08-03T14:06:35.018Z,1.83
2018-08-03T14:09:04.552Z,1.83
2018-08-03T14:11:59.198Z,1.93
2018-08-03T14:15:01.101Z,1.90
2018-08-03T14:17:48.433Z,2.40
2018-08-03T14:20:46.258Z,1.60
2018-08-03T14:23:14.929Z,2.00
2018-08-03T14:25:43.788Z,2.10
2018-08-03T14:28:12.520Z,2.23
2018-08-03T14:30:41.091Z,1.57
2018-08-03T14:33:09.541Z,1.80
2018-08-03T14:35:38.079Z,1.80
2018-08-03T14:38:06.609Z,1.67
2018-08-03T14:40:35.132Z,1.73
2018-08-03T14:43:04.127Z,1.90
2018-08-03T14:45:32.654Z,2.10
2018-08-03T14:48:01.205Z,1.80
2018-08-03T14:50:29.841Z,1.53
2018-08-03T14:52:58.332Z,1.90
2018-08-03T14:55:26.896Z,1.80
2018-08-03T14:57:55.626Z,2.20
2018-08-03T15:00:24.060Z,2.00
2018-08-03T15:02:54.286Z,1.90
2018-08-03T15:05:22.520Z,1.70
2018-08-03T15:07:51.510Z,1.73
2018-08-03T15:10:20.743Z,1.73
2018-08-03T15:12:50.172Z,1.70
2018-08-03T15:15:18.696Z,1.70
2018-08-03T15:17:47.330Z,1.80
2018-08-03T15:20:16.623Z,1.70
2018-08-03T15:22:45.160Z,1.97
2018-08-03T15:25:13.641Z,2.00
2018-08-03T15:27:42.114Z,1.70
2018-08-03T15:30:11.550Z,1.77
2018-08-03T15:32:40.696Z,1.60
2018-08-03T15:35:09.273Z,1.90
2018-08-03T15:37:37.961Z,1.73
2018-08-03T15:40:06.866Z,1.80
2018-08-03T15:42:35.626Z,2.10
2018-08-03T15:45:04.912Z,1.60
2018-08-03T15:47:33.477Z,1.60
2018-08-03T15:50:02.555Z,1.70
2018-08-03T15:52:33.383Z,1.50
2018-08-03T15:55:02.534Z,1.80
2018-08-03T15:57:31.366Z,1.67
2018-08-03T15:59:59.997Z,1.43
2018-08-03T16:02:28.671Z,1.33
2018-08-03T16:04:57.625Z,1.30
2018-08-03T16:07:26.139Z,1.63
2018-08-03T16:09:54.928Z,1.50
2018-08-03T16:12:24.552Z,1.57
2018-08-03T16:14:53.547Z,1.30
2018-08-03T16:17:22.156Z,1.40
2018-08-03T16:19:50.651Z,1.73
2018-08-03T16:22:19.208Z,1.60
2018-08-03T16:24:47.715Z,1.50
2018-08-03T16:27:16.338Z,1.30
2018-08-03T16:29:45.204Z,1.40
2018-08-03T16:32:14.204Z,1.57
2018-08-03T16:34:42.850Z,1.60
2018-08-03T16:37:11.790Z,1.50
2018-08-03T16:39:40.297Z,1.20
2018-08-03T16:42:08.836Z,1.70
2018-08-03T16:44:37.374Z,1.83
2018-08-03T16:47:06.627Z,1.60
2018-08-03T16:49:35.629Z,1.60
2018-08-03T16:52:04.469Z,1.50
2018-08-03T16:54:33.146Z,1.40
2018-08-03T16:57:01.819Z,1.70
2018-08-03T16:59:30.333Z,1.57
2018-08-03T17:01:58.940Z,1.40
2018-08-03T17:04:27.501Z,1.40
2018-08-03T17:06:55.976Z,0.97
2018-08-03T17:09:24.591Z,1.10
2018-08-03T17:11:53.123Z,1.60
2018-08-03T17:14:22.303Z,1.30
2018-08-03T17:16:50.988Z,1.57
2018-08-03T17:19:19.493Z,1.70
2018-08-03T17:21:48.082Z,1.57
2018-08-03T17:24:16.309Z,1.50
2018-08-03T17:26:45.394Z,1.63
2018-08-03T17:29:13.892Z,1.30
2018-08-03T17:31:42.410Z,1.70
2018-08-03T17:34:10.957Z,1.70
2018-08-03T17:36:40.914Z,1.57
2018-08-03T17:39:10.480Z,1.93
2018-08-03T17:41:39.013Z,1.73
2018-08-03T17:44:07.545Z,1.73
2018-08-03T17:46:36.077Z,1.80
2018-08-03T17:49:04.268Z,1.87
2018-08-03T17:51:33.439Z,1.53
2018-08-03T17:54:01.941Z,1.77
2018-08-03T17:56:30.424Z,1.93
2018-08-03T17:58:59.347Z,1.87
2018-08-03T18:01:27.902Z,1.80
2018-08-03T18:03:56.501Z,1.80
2018-08-03T18:06:25.055Z,1.80
2018-08-03T18:08:53.622Z,1.87
2018-08-03T18:11:22.083Z,1.70
2018-08-03T18:13:50.669Z,1.80
2018-08-03T18:16:19.286Z,1.80
2018-08-03T18:18:47.805Z,1.63
2018-08-03T18:21:16.335Z,1.40
2018-08-03T18:23:44.879Z,1.57
2018-08-03T18:26:13.414Z,1.60
2018-08-03T18:28:41.992Z,1.80
2018-08-03T18:31:10.484Z,1.50
2018-08-03T18:33:38.982Z,1.73
2018-08-03T18:36:07.532Z,1.90
2018-08-03T18:38:36.027Z,1.50
2018-08-03T18:41:04.493Z,1.40
2018-08-03T18:43:33.055Z,1.50
2018-08-03T18:46:01.508Z,1.60
2018-08-03T18:48:30.097Z,1.60
2018-08-03T18:50:58.723Z,1.57
2018-08-03T18:53:27.308Z,1.63
2018-08-03T18:55:55.821Z,1.70
2018-08-03T18:58:24.339Z,1.43
2018-08-03T19:00:52.510Z,1.70
2018-08-03T19:03:21.492Z,1.50
2018-08-03T19:05:50.095Z,1.70
2018-08-03T19:08:18.606Z,1.90
2018-08-03T19:10:47.234Z,1.70
2018-08-03T19:13:15.814Z,1.70
2018-08-03T19:15:44.397Z,1.60
2018-08-03T19:18:12.925Z,1.53
2018-08-03T19:20:41.506Z,2.17
2018-08-03T19:23:10.537Z,1.90
2018-08-03T19:25:39.098Z,2.17
2018-08-03T19:28:07.650Z,2.20
2018-08-03T19:30:36.232Z,2.17
2018-08-03T19:33:04.680Z,1.80
2018-08-03T19:35:33.253Z,1.90
2018-08-03T19:38:01.450Z,1.80
2018-08-03T19:40:29.649Z,1.93
2018-08-03T19:42:58.206Z,1.90
2018-08-03T19:45:26.735Z,2.10
2018-08-03T19:47:55.344Z,1.87
2018-08-03T19:50:24.053Z,2.10
2018-08-03T19:52:52.728Z,2.03
2018-08-03T19:55:21.325Z,2.20
2018-08-03T19:57:49.585Z,2.00
2018-08-03T20:00:18.339Z,1.70
2018-08-03T20:02:46.800Z,2.57
2018-08-03T20:05:15.724Z,2.07
2018-08-03T20:07:44.236Z,1.70
2018-08-03T20:10:12.684Z,2.10
2018-08-03T20:12:40.956Z,2.00
2018-08-03T20:15:09.371Z,1.70
2018-08-03T20:17:37.587Z,1.93
2018-08-03T20:20:05.813Z,2.47
2018-08-03T20:22:34.058Z,2.10
2018-08-03T20:25:02.263Z,2.03
2018-08-03T20:27:30.468Z,1.60
2018-08-03T20:29:58.693Z,2.13
2018-08-03T20:32:26.856Z,1.90
2018-08-03T20:34:55.063Z,1.70
2018-08-03T20:37:23.240Z,2.17
2018-08-03T20:39:51.475Z,2.00
2018-08-03T20:42:19.610Z,1.80
2018-08-03T20:44:47.789Z,1.97
2018-08-03T20:47:16.988Z,2.00
2018-08-03T20:49:45.721Z,1.80
2018-08-03T20:52:13.993Z,2.10
2018-08-03T20:54:42.194Z,2.20
2018-08-03T20:57:10.378Z,2.07
2018-08-03T20:59:38.513Z,2.20
2018-08-03T21:02:06.778Z,2.17
2018-08-03T21:04:35.012Z,2.17
2018-08-03T21:07:03.154Z,2.20
2018-08-03T21:09:31.352Z,2.03
2018-08-03T21:11:59.550Z,2.17
2018-08-03T21:14:27.716Z,1.80
2018-08-03T21:16:56.040Z,1.90
2018-08-03T21:19:24.196Z,1.67
2018-08-03T21:21:52.443Z,1.70
2018-08-03T21:24:20.584Z,1.70
2018-08-03T21:26:48.765Z,1.60
2018-08-03T21:29:16.897Z,1.60
2018-08-03T21:31:45.052Z,1.47
2018-08-03T21:34:13.253Z,1.33
2018-08-03T21:36:41.447Z,1.40
2018-08-03T21:39:11.169Z,1.17
2018-08-03T21:41:39.392Z,1.40
2018-08-03T21:44:07.649Z,1.50
2018-08-03T21:46:35.868Z,1.23
2018-08-03T21:49:04.246Z,1.47
2018-08-03T21:51:33.092Z,1.30
2018-08-03T21:54:01.256Z,2.17
2018-08-03T21:56:29.493Z,1.40
2018-08-03T22:00:58.963Z,2.00
2018-08-03T22:03:27.253Z,1.60
2018-08-03T22:05:55.570Z,1.70
2018-08-03T22:08:24.212Z,1.93
2018-08-03T22:10:52.468Z,2.30
2018-08-03T22:13:20.658Z,2.10
2018-08-03T22:15:48.845Z,1.90
2018-08-03T22:18:18.013Z,2.10
2018-08-03T22:20:46.373Z,1.60
2018-08-03T22:23:14.692Z,2.00
2018-08-03T22:25:42.833Z,1.63
2018-08-03T22:28:11.010Z,1.70
2018-08-03T22:30:39.324Z,2.10
2018-08-03T22:33:07.589Z,2.47
2018-08-03T22:35:35.921Z,2.10
2018-08-03T22:38:04.086Z,2.33
2018-08-03T22:40:32.299Z,2.03
2018-08-03T22:43:00.701Z,2.37
2018-08-03T22:45:28.942Z,2.27
2018-08-03T22:47:57.063Z,2.10
2018-08-03T22:50:25.309Z,2.67
2018-08-03T22:55:28.267Z,2.20
2018-08-03T22:57:56.460Z,2.00
2018-08-03T23:00:24.631Z,2.30
2018-08-03T23:02:52.954Z,2.10
2018-08-03T23:05:21.265Z,2.20
2018-08-03T23:07:49.432Z,2.37
2018-08-03T23:10:17.634Z,2.23
2018-08-03T23:12:45.864Z,2.17
2018-08-03T23:15:14.116Z,2.67
2018-08-03T23:17:42.300Z,2.23
2018-08-03T23:20:10.511Z,3.17
2018-08-03T23:22:38.691Z,3.20
2018-08-03T23:25:06.924Z,2.50
2018-08-03T23:27:35.153Z,2.47
2018-08-03T23:30:03.379Z,2.60
2018-08-03T23:32:31.655Z,2.80
2018-08-03T23:34:59.842Z,2.53
2018-08-03T23:37:28.019Z,2.40
2018-08-03T23:39:56.345Z,2.43
2018-08-03T23:42:24.514Z,2.40
2018-08-03T23:44:53.008Z,2.60
2018-08-03T23:47:21.208Z,2.50
2018-08-03T23:49:49.403Z,2.50
2018-08-03T23:52:17.600Z,2.27
2018-08-03T23:57:22.632Z,2.77
2018-08-03T23:59:50.944Z,2.17
